Time;durP1;ratioP1;P1;durP2;ratioP2;P2;SDS_P1;SDS_P2;PMS_P1;PMS_P2;Temp;Humidity;BMP_temperature;BMP_pressure;BME280_temperature;BME280_humidity;BME280_pressure;Samples;Min_cycle;Max_cycle;Signal;HPM_P1;HPM_P2
2023/12/03 00:00:43;;;;;;;68.20;45.28;;;0.90;99.90;;;;;;5132771;27;20069;-78
2023/12/03 00:03:11;;;;;;;78.38;46.88;;;0.80;99.90;;;;;;5131914;27;20436;-78
2023/12/03 00:05:38;;;;;;;65.68;41.00;;;0.80;99.90;;;;;;5113881;27;20023;-78
2023/12/03 00:08:04;;;;;;;65.15;41.47;;;0.60;99.90;;;;;;5131724;27;20024;-78
2023/12/03 00:10:30;;;;;;;68.07;43.47;;;0.70;99.90;;;;;;5114114;27;20046;-78
2023/12/03 00:12:56;;;;;;;72.35;44.03;;;0.80;99.90;;;;;;5132216;27;20043;-78
2023/12/03 00:15:22;;;;;;;94.50;49.05;;;0.80;99.90;;;;;;5131970;27;20054;-78
2023/12/03 00:17:49;;;;;;;99.80;48.22;;;0.90;99.90;;;;;;5113764;27;20027;-79
2023/12/03 00:20:15;;;;;;;96.90;49.80;;;0.90;99.90;;;;;;5131768;27;20058;-78
2023/12/03 00:22:41;;;;;;;155.95;68.78;;;1.10;99.90;;;;;;5113344;27;20023;-78
2023/12/03 00:25:07;;;;;;;122.53;59.03;;;1.20;99.90;;;;;;5131646;27;20019;-77
2023/12/03 00:27:33;;;;;;;203.15;79.30;;;1.30;99.90;;;;;;5132038;27;20043;-78
2023/12/03 00:29:59;;;;;;;234.93;88.53;;;1.40;99.90;;;;;;5131551;27;20034;-78
2023/12/03 00:32:25;;;;;;;205.32;82.20;;;1.40;99.90;;;;;;5132430;27;20038;-78
2023/12/03 00:34:50;;;;;;;161.10;66.65;;;1.40;99.90;;;;;;5131332;27;20106;-79
2023/12/03 00:37:16;;;;;;;154.75;65.25;;;1.40;99.90;;;;;;5132435;27;20027;-78
2023/12/03 00:39:42;;;;;;;193.32;69.47;;;1.50;99.90;;;;;;5114138;27;20031;-78
2023/12/03 00:42:07;;;;;;;212.85;56.03;;;1.60;99.90;;;;;;5132733;27;20302;-78
2023/12/03 00:44:33;;;;;;;123.90;45.15;;;1.60;99.90;;;;;;5114504;27;20027;-78
2023/12/03 00:47:00;;;;;;;128.18;41.30;;;1.50;99.90;;;;;;5132649;27;20027;-77
2023/12/03 00:49:25;;;;;;;87.07;35.85;;;1.60;99.90;;;;;;5133500;27;20042;-77
2023/12/03 00:51:51;;;;;;;161.68;46.00;;;1.70;99.90;;;;;;5150130;27;20019;-80
2023/12/03 00:54:17;;;;;;;135.10;41.28;;;1.70;99.90;;;;;;5134603;27;20073;-78
2023/12/03 00:56:43;;;;;;;104.40;37.88;;;1.70;99.90;;;;;;5114874;27;20393;-78
2023/12/03 00:59:09;;;;;;;164.93;44.53;;;1.70;99.90;;;;;;5135131;27;20027;-77
2023/12/03 01:01:34;;;;;;;126.63;40.10;;;1.80;99.90;;;;;;5138852;27;20476;-76
2023/12/03 01:04:00;;;;;;;160.95;43.53;;;1.90;99.90;;;;;;5113480;28;20381;-76
2023/12/03 01:06:26;;;;;;;145.35;43.45;;;1.80;99.90;;;;;;5132111;27;20027;-77
2023/12/03 01:08:52;;;;;;;133.00;38.40;;;1.90;99.90;;;;;;5131645;27;20117;-78
2023/12/03 01:11:18;;;;;;;110.68;35.15;;;1.80;99.90;;;;;;5132637;27;20054;-78
2023/12/03 01:13:43;;;;;;;131.60;37.08;;;1.90;99.90;;;;;;5131939;27;20058;-77
2023/12/03 01:16:16;;;;;;;137.82;40.03;;;2.00;99.90;;;;;;5112975;27;20087;-77
2023/12/03 01:18:43;;;;;;;131.35;37.42;;;2.00;99.90;;;;;;5113210;27;20417;-77
2023/12/03 01:21:09;;;;;;;118.78;37.65;;;1.90;99.90;;;;;;5131019;27;20035;-77
2023/12/03 01:23:35;;;;;;;84.03;32.90;;;1.90;99.90;;;;;;5131670;27;20027;-77
2023/12/03 01:26:01;;;;;;;125.20;36.65;;;1.90;99.90;;;;;;5131262;27;20031;-77
2023/12/03 01:28:26;;;;;;;158.27;41.47;;;2.00;99.90;;;;;;5131831;27;20023;-77
2023/12/03 01:30:52;;;;;;;92.75;32.72;;;2.00;99.90;;;;;;5113265;28;20352;-78
2023/12/03 01:33:18;;;;;;;187.02;44.40;;;2.00;99.90;;;;;;5131450;28;20026;-77
2023/12/03 01:35:44;;;;;;;116.53;37.00;;;2.10;99.90;;;;;;5113288;28;20171;-77
2023/12/03 01:38:10;;;;;;;127.38;38.38;;;2.10;99.90;;;;;;5130750;28;20019;-77
2023/12/03 01:40:35;;;;;;;114.03;35.45;;;2.00;99.90;;;;;;5131927;28;20027;-77
2023/12/03 01:43:02;;;;;;;166.38;43.95;;;2.20;99.90;;;;;;5131048;28;20023;-78
2023/12/03 01:45:28;;;;;;;95.63;32.78;;;2.20;99.90;;;;;;5131594;28;20384;-78
2023/12/03 01:47:55;;;;;;;154.10;44.42;;;2.20;99.90;;;;;;5131397;28;20106;-78
2023/12/03 01:50:22;;;;;;;97.75;32.03;;;2.20;99.90;;;;;;5131698;28;20103;-78
2023/12/03 01:52:49;;;;;;;87.40;33.50;;;2.10;99.90;;;;;;5132319;28;20163;-78
2023/12/03 01:55:16;;;;;;;100.97;34.30;;;2.20;99.90;;;;;;5112487;28;20053;-78
2023/12/03 01:57:42;;;;;;;141.00;38.33;;;2.10;99.90;;;;;;5131536;28;20065;-78
2023/12/03 02:00:09;;;;;;;109.50;34.40;;;2.30;99.90;;;;;;5130803;28;20023;-78
2023/12/03 02:02:35;;;;;;;131.65;36.58;;;2.20;99.90;;;;;;5113145;28;20079;-78
2023/12/03 02:05:01;;;;;;;122.30;35.65;;;2.20;99.90;;;;;;5131233;27;20098;-78
2023/12/03 02:07:26;;;;;;;161.45;40.63;;;2.30;99.90;;;;;;5136055;27;20030;-78
2023/12/03 02:09:53;;;;;;;114.43;33.25;;;2.20;99.90;;;;;;5135644;27;20034;-78
2023/12/03 02:12:18;;;;;;;140.10;38.33;;;2.20;99.90;;;;;;5135415;27;20030;-78
2023/12/03 02:14:44;;;;;;;148.13;39.72;;;2.20;99.90;;;;;;5135318;27;20027;-78
2023/12/03 02:17:10;;;;;;;140.30;37.67;;;2.40;99.90;;;;;;5134471;27;20068;-78
2023/12/03 02:19:36;;;;;;;146.00;40.08;;;2.30;99.90;;;;;;5116761;27;20034;-79
2023/12/03 02:22:02;;;;;;;126.78;35.38;;;2.20;99.90;;;;;;5134777;27;20035;-78
2023/12/03 02:24:28;;;;;;;117.47;34.47;;;2.30;99.90;;;;;;5135267;27;20019;-78
2023/12/03 02:26:53;;;;;;;112.15;34.33;;;2.30;99.90;;;;;;5135402;27;20456;-78
2023/12/03 02:29:19;;;;;;;114.00;33.92;;;2.30;99.90;;;;;;5134167;27;20096;-78
2023/12/03 02:31:45;;;;;;;85.25;31.70;;;2.30;99.90;;;;;;5134696;27;20023;-78
2023/12/03 02:34:12;;;;;;;80.75;28.13;;;2.20;99.90;;;;;;5134474;27;20023;-78
2023/12/03 02:36:38;;;;;;;78.90;28.90;;;2.30;99.90;;;;;;5134449;27;20032;-78
2023/12/03 02:39:05;;;;;;;90.93;30.15;;;2.20;99.90;;;;;;5133741;27;20023;-78
2023/12/03 02:41:31;;;;;;;89.40;29.27;;;2.30;99.90;;;;;;5134766;27;20042;-78
2023/12/03 02:43:57;;;;;;;72.80;26.13;;;2.20;99.90;;;;;;5134313;27;20023;-78
2023/12/03 02:46:23;;;;;;;81.50;26.88;;;2.20;99.90;;;;;;5134277;27;20083;-78
2023/12/03 02:48:49;;;;;;;79.15;25.98;;;2.30;99.90;;;;;;5134386;27;20023;-78
2023/12/03 02:51:14;;;;;;;70.80;24.27;;;2.30;99.90;;;;;;5133846;27;20027;-77
2023/12/03 02:53:41;;;;;;;72.93;24.88;;;2.30;99.90;;;;;;5116039;27;20043;-78
2023/12/03 02:56:07;;;;;;;68.63;22.77;;;2.20;99.90;;;;;;5133835;27;20087;-78
2023/12/03 02:58:33;;;;;;;74.85;23.67;;;2.30;99.90;;;;;;5134096;27;20113;-77
2023/12/03 03:00:59;;;;;;;69.85;23.90;;;2.20;99.90;;;;;;5133885;27;20019;-78
2023/12/03 03:03:25;;;;;;;72.97;25.33;;;2.30;99.90;;;;;;5133957;27;20050;-78
2023/12/03 03:05:50;;;;;;;71.30;25.40;;;2.30;99.90;;;;;;5134140;27;20019;-77
2023/12/03 03:08:16;;;;;;;68.78;24.17;;;2.20;99.90;;;;;;5133689;27;20310;-78
2023/12/03 03:10:42;;;;;;;64.57;22.90;;;2.20;99.90;;;;;;5116184;27;20471;-77
2023/12/03 03:13:08;;;;;;;77.50;25.25;;;2.20;99.90;;;;;;5133608;27;20027;-77
2023/12/03 03:15:34;;;;;;;79.35;26.20;;;2.20;99.90;;;;;;5133747;27;20405;-77
2023/12/03 03:18:00;;;;;;;82.07;27.60;;;2.20;99.90;;;;;;5132464;27;20380;-79
2023/12/03 03:20:26;;;;;;;57.22;23.35;;;2.10;99.90;;;;;;5133476;27;20054;-78
2023/12/03 03:22:52;;;;;;;74.00;26.15;;;2.20;99.90;;;;;;5133757;27;20483;-76
2023/12/03 03:25:18;;;;;;;54.97;24.33;;;2.20;99.90;;;;;;5133312;27;20024;-77
2023/12/03 03:27:44;;;;;;;58.53;23.52;;;2.20;99.90;;;;;;5133664;27;20034;-77
2023/12/03 03:30:10;;;;;;;50.97;22.13;;;2.10;99.90;;;;;;5133116;27;20027;-77
2023/12/03 03:32:36;;;;;;;52.42;20.90;;;2.10;99.90;;;;;;5133286;27;20467;-77
2023/12/03 03:35:03;;;;;;;61.08;24.10;;;2.10;99.90;;;;;;5114922;27;20031;-79
2023/12/03 03:37:29;;;;;;;62.03;23.00;;;2.30;99.90;;;;;;5115235;27;20419;-79
2023/12/03 03:39:55;;;;;;;68.38;24.05;;;2.20;99.90;;;;;;5133434;27;20019;-79
2023/12/03 03:42:21;;;;;;;62.22;22.67;;;2.10;99.90;;;;;;5132686;27;20135;-77
2023/12/03 03:44:47;;;;;;;66.60;22.80;;;2.10;99.90;;;;;;5132958;27;20437;-77
2023/12/03 03:47:13;;;;;;;89.30;27.50;;;2.20;99.90;;;;;;5132396;27;20023;-77
2023/12/03 03:49:39;;;;;;;80.35;26.38;;;2.20;99.90;;;;;;5114777;27;20344;-77
2023/12/03 03:52:05;;;;;;;59.95;23.30;;;2.20;99.90;;;;;;5132458;27;20419;-78
2023/12/03 03:54:31;;;;;;;64.55;23.10;;;2.20;99.90;;;;;;5133223;27;20073;-77
2023/12/03 03:56:57;;;;;;;44.45;20.05;;;2.00;99.90;;;;;;5133024;27;20030;-77
2023/12/03 03:59:23;;;;;;;65.85;23.13;;;2.20;99.90;;;;;;5132445;27;20023;-77
2023/12/03 04:01:49;;;;;;;53.08;21.27;;;2.20;99.90;;;;;;5132925;27;20054;-77
2023/12/03 04:04:14;;;;;;;60.05;23.50;;;2.10;99.90;;;;;;5132465;27;20511;-77
2023/12/03 04:06:43;;;;;;;71.97;24.13;;;2.20;99.90;;;;;;5133209;27;20027;-77
2023/12/03 04:09:09;;;;;;;65.22;22.92;;;2.20;99.90;;;;;;5132145;27;20413;-77
2023/12/03 04:11:41;;;;;;;59.90;22.70;;;2.10;99.90;;;;;;5133020;27;20062;-77
2023/12/03 04:14:08;;;;;;;59.97;23.25;;;2.20;99.90;;;;;;5132007;27;20019;-78
2023/12/03 04:16:36;;;;;;;54.90;21.85;;;2.20;99.90;;;;;;5132560;27;20469;-77
2023/12/03 04:19:03;;;;;;;48.80;21.27;;;2.20;99.90;;;;;;5114139;27;20031;-77
2023/12/03 04:21:29;;;;;;;43.85;20.10;;;2.00;99.90;;;;;;5113711;27;20038;-76
2023/12/03 04:23:57;;;;;;;47.80;21.30;;;2.00;99.90;;;;;;5132356;27;20468;-76
2023/12/03 04:26:23;;;;;;;54.35;22.05;;;2.00;99.90;;;;;;5131892;27;20031;-77
2023/12/03 04:28:49;;;;;;;44.08;19.75;;;2.00;99.90;;;;;;5132317;27;20028;-76
2023/12/03 04:31:21;;;;;;;46.75;21.15;;;2.10;99.90;;;;;;5131863;27;20357;-76
2023/12/03 04:33:50;;;;;;;49.33;20.63;;;2.10;99.90;;;;;;5132458;27;20531;-76
2023/12/03 04:36:16;;;;;;;42.15;19.58;;;1.90;99.90;;;;;;5132089;27;20084;-76
2023/12/03 04:38:42;;;;;;;49.42;19.73;;;2.00;99.90;;;;;;5132520;27;20027;-77
2023/12/03 04:41:09;;;;;;;54.17;20.58;;;2.00;99.90;;;;;;5132392;27;20027;-78
2023/12/03 04:43:34;;;;;;;48.58;21.60;;;1.90;99.90;;;;;;5113906;27;20034;-77
2023/12/03 04:46:07;;;;;;;47.15;20.88;;;2.00;99.90;;;;;;5113841;27;20027;-77
2023/12/03 04:48:34;;;;;;;78.43;23.35;;;2.00;99.90;;;;;;5133141;27;20034;-78
2023/12/03 04:51:00;;;;;;;50.70;20.30;;;2.10;99.90;;;;;;5103003;27;20333;-78
2023/12/03 04:53:26;;;;;;;45.15;19.50;;;1.90;99.90;;;;;;5151286;27;20171;-77
2023/12/03 04:55:52;;;;;;;42.67;18.67;;;2.00;99.90;;;;;;5121074;27;20051;-79
2023/12/03 04:58:18;;;;;;;58.63;21.77;;;1.90;99.90;;;;;;5143431;27;20022;-79
2023/12/03 05:00:44;;;;;;;53.20;22.30;;;2.00;99.90;;;;;;5145918;27;20513;-77
2023/12/03 05:03:09;;;;;;;41.42;18.50;;;1.90;99.90;;;;;;5117410;27;20035;-77
2023/12/03 05:05:35;;;;;;;48.45;21.30;;;1.90;99.90;;;;;;5132215;27;20028;-77
2023/12/03 05:08:01;;;;;;;49.45;20.42;;;2.00;99.90;;;;;;5096773;27;20055;-77
2023/12/03 05:10:29;;;;;;;71.28;24.40;;;2.00;99.90;;;;;;5131995;27;20099;-77
2023/12/03 05:12:55;;;;;;;65.20;23.90;;;1.90;99.90;;;;;;5132191;27;20027;-77
2023/12/03 05:15:21;;;;;;;56.35;23.70;;;1.80;99.90;;;;;;5131511;27;20124;-77
2023/12/03 05:17:47;;;;;;;83.95;23.42;;;1.90;99.90;;;;;;5131707;27;20467;-77
2023/12/03 05:20:13;;;;;;;63.67;23.02;;;1.90;99.90;;;;;;5131340;27;20040;-78
2023/12/03 05:22:39;;;;;;;67.68;23.40;;;1.90;99.90;;;;;;5132209;27;20038;-77
2023/12/03 05:25:05;;;;;;;64.95;24.00;;;1.90;99.90;;;;;;5113460;27;20051;-77
2023/12/03 05:27:32;;;;;;;73.57;24.92;;;1.80;99.90;;;;;;5112251;27;20055;-77
2023/12/03 05:29:58;;;;;;;51.85;22.45;;;1.80;99.90;;;;;;5131789;27;20060;-77
2023/12/03 05:32:24;;;;;;;63.05;23.75;;;1.80;99.90;;;;;;5131063;27;20148;-77
2023/12/03 05:34:51;;;;;;;65.80;24.40;;;1.80;99.90;;;;;;5113424;28;20051;-77
2023/12/03 05:37:17;;;;;;;68.65;25.42;;;1.90;99.90;;;;;;5131346;28;20052;-79
2023/12/03 05:39:43;;;;;;;81.05;25.95;;;1.90;99.90;;;;;;5131527;27;20031;-77
2023/12/03 05:42:09;;;;;;;56.03;22.10;;;1.90;99.90;;;;;;5117140;27;20046;-78
2023/12/03 05:44:34;;;;;;;79.95;24.52;;;1.90;99.90;;;;;;5135358;27;20038;-77
2023/12/03 05:47:02;;;;;;;83.35;25.35;;;2.00;99.90;;;;;;5136182;27;20023;-77
2023/12/03 05:49:28;;;;;;;51.33;22.10;;;1.90;99.90;;;;;;5135873;27;20045;-78
2023/12/03 05:51:54;;;;;;;91.85;27.02;;;1.90;99.90;;;;;;5136298;27;20019;-77
2023/12/03 05:54:20;;;;;;;84.88;26.80;;;1.90;99.90;;;;;;5135298;27;20039;-77
2023/12/03 05:56:46;;;;;;;83.30;26.23;;;1.90;99.90;;;;;;5117968;27;20029;-78
2023/12/03 05:59:12;;;;;;;65.97;23.38;;;1.80;99.90;;;;;;5135657;27;20035;-79
2023/12/03 06:01:38;;;;;;;59.13;23.17;;;1.80;99.90;;;;;;5135739;27;20028;-77
2023/12/03 06:04:07;;;;;;;44.53;19.77;;;1.90;99.90;;;;;;5135388;27;20034;-77
2023/12/03 06:06:36;;;;;;;46.78;20.80;;;1.90;99.90;;;;;;5134985;27;20044;-77
2023/12/03 06:09:05;;;;;;;55.35;21.70;;;1.90;99.90;;;;;;5135216;27;20087;-77
2023/12/03 06:11:35;;;;;;;43.58;19.73;;;1.80;99.90;;;;;;5135474;27;20089;-77
2023/12/03 06:14:01;;;;;;;42.38;19.15;;;1.90;99.90;;;;;;5117164;27;20023;-77
2023/12/03 06:16:27;;;;;;;51.88;20.50;;;1.90;99.90;;;;;;5135213;27;20027;-76
2023/12/03 06:18:53;;;;;;;54.10;22.75;;;1.80;99.90;;;;;;5135409;27;20034;-77
2023/12/03 06:21:19;;;;;;;43.13;20.10;;;1.80;99.90;;;;;;5135018;27;20027;-77
2023/12/03 06:23:44;;;;;;;41.17;18.95;;;1.80;99.90;;;;;;5116990;27;20028;-77
2023/12/03 06:26:10;;;;;;;60.72;22.92;;;1.90;99.90;;;;;;5135078;27;20027;-77
2023/12/03 06:28:36;;;;;;;49.22;20.58;;;1.80;99.90;;;;;;5134516;27;20027;-77
2023/12/03 06:31:05;;;;;;;41.20;20.17;;;1.90;99.90;;;;;;5116251;27;20072;-77
2023/12/03 06:33:31;;;;;;;47.40;21.00;;;1.80;99.90;;;;;;5115538;27;20031;-77
2023/12/03 06:35:56;;;;;;;47.08;20.67;;;1.70;99.90;;;;;;5116004;27;20160;-77
2023/12/03 06:38:23;;;;;;;45.47;20.10;;;1.70;99.90;;;;;;5133968;27;20030;-77
2023/12/03 06:40:49;;;;;;;44.33;20.05;;;1.70;99.90;;;;;;5134910;27;20064;-77
2023/12/03 06:43:14;;;;;;;52.92;20.83;;;1.70;99.90;;;;;;5134432;27;20162;-79
2023/12/03 06:45:41;;;;;;;43.17;18.70;;;1.70;99.90;;;;;;5134729;27;20459;-77
2023/12/03 06:48:07;;;;;;;41.67;19.20;;;1.70;99.90;;;;;;5134836;27;20038;-77
2023/12/03 06:50:33;;;;;;;46.20;19.92;;;1.70;99.90;;;;;;5134294;27;20027;-77
2023/12/03 06:53:00;;;;;;;44.80;19.48;;;1.80;99.90;;;;;;5134507;27;20046;-77
2023/12/03 06:55:26;;;;;;;50.85;20.08;;;1.70;99.90;;;;;;5114873;27;20050;-78
2023/12/03 06:57:52;;;;;;;50.60;20.58;;;1.60;99.90;;;;;;5134079;27;20027;-77
2023/12/03 07:00:18;;;;;;;54.63;21.98;;;1.70;99.90;;;;;;5115404;27;20027;-78
2023/12/03 07:02:43;;;;;;;53.22;21.60;;;1.70;99.90;;;;;;5134240;27;20027;-77
2023/12/03 07:05:09;;;;;;;51.05;22.42;;;1.70;99.90;;;;;;5134172;27;20035;-77
2023/12/03 07:07:35;;;;;;;62.38;23.77;;;1.70;99.90;;;;;;5133849;27;20660;-77
2023/12/03 07:10:01;;;;;;;48.38;20.98;;;1.70;99.90;;;;;;5134314;27;20031;-77
2023/12/03 07:12:26;;;;;;;52.00;21.92;;;1.70;99.90;;;;;;5133780;27;20222;-78
2023/12/03 07:14:52;;;;;;;51.97;23.45;;;1.60;99.90;;;;;;5115720;27;20076;-77
2023/12/03 07:17:18;;;;;;;51.65;22.73;;;1.60;99.90;;;;;;5133869;27;20351;-79
2023/12/03 07:19:44;;;;;;;48.30;22.05;;;1.70;99.90;;;;;;5115429;27;20130;-77
2023/12/03 07:22:10;;;;;;;48.50;21.30;;;1.70;99.90;;;;;;5133889;27;20035;-76
2023/12/03 07:24:38;;;;;;;49.53;21.67;;;1.60;99.90;;;;;;5133124;27;20026;-76
2023/12/03 07:27:04;;;;;;;49.10;21.02;;;1.70;99.90;;;;;;5133828;27;20030;-76
2023/12/03 07:29:30;;;;;;;43.75;19.70;;;1.70;99.90;;;;;;5114840;27;20035;-77
2023/12/03 07:31:56;;;;;;;45.60;19.70;;;1.70;99.90;;;;;;5133961;27;20085;-77
2023/12/03 07:34:21;;;;;;;45.53;21.08;;;1.70;99.90;;;;;;5133412;27;20380;-78
2023/12/03 07:36:47;;;;;;;43.45;20.50;;;1.80;99.90;;;;;;5115503;27;20042;-78
2023/12/03 07:39:13;;;;;;;40.78;19.02;;;1.80;99.90;;;;;;5115207;27;20027;-76
2023/12/03 07:41:39;;;;;;;49.47;20.25;;;1.80;99.90;;;;;;5133307;27;20038;-77
2023/12/03 07:44:04;;;;;;;51.85;19.88;;;1.80;99.90;;;;;;5133587;27;20023;-77
2023/12/03 07:46:32;;;;;;;40.10;19.60;;;1.90;99.90;;;;;;5114694;27;20412;-76
2023/12/03 07:48:58;;;;;;;55.60;23.85;;;1.90;99.90;;;;;;5133472;27;20034;-76
2023/12/03 07:51:24;;;;;;;57.13;23.75;;;1.80;99.90;;;;;;5132842;27;20027;-76
2023/12/03 07:53:50;;;;;;;55.53;22.38;;;1.80;99.90;;;;;;5133284;27;20130;-76
2023/12/03 07:56:16;;;;;;;45.17;21.80;;;1.60;99.90;;;;;;5133208;27;20047;-76
2023/12/03 07:58:41;;;;;;;52.08;22.30;;;1.70;99.90;;;;;;5132090;27;20046;-77
2023/12/03 08:01:07;;;;;;;53.83;23.73;;;1.60;99.90;;;;;;5133246;27;20030;-77
2023/12/03 08:03:33;;;;;;;57.05;23.33;;;1.60;99.90;;;;;;5131939;27;20486;-79
2023/12/03 08:05:59;;;;;;;54.83;22.90;;;1.50;99.90;;;;;;5132845;27;20027;-77
2023/12/03 08:08:24;;;;;;;59.10;24.35;;;1.50;99.90;;;;;;5132754;27;20025;-79
2023/12/03 08:10:50;;;;;;;61.25;25.13;;;1.60;99.90;;;;;;5133138;27;20096;-78
2023/12/03 08:13:16;;;;;;;65.15;26.02;;;1.60;99.90;;;;;;5132856;27;20094;-78
2023/12/03 08:15:41;;;;;;;58.50;25.35;;;1.50;99.90;;;;;;5132486;27;20027;-79
2023/12/03 08:18:07;;;;;;;57.47;23.80;;;1.60;99.90;;;;;;5114648;27;20077;-77
2023/12/03 08:20:33;;;;;;;61.20;25.02;;;1.50;99.90;;;;;;5132159;27;20432;-76
2023/12/03 08:22:58;;;;;;;52.45;23.60;;;1.50;99.90;;;;;;5114530;27;20027;-77
2023/12/03 08:25:24;;;;;;;49.38;21.13;;;1.50;99.90;;;;;;5132003;27;20428;-77
2023/12/03 08:27:51;;;;;;;59.45;23.15;;;1.50;99.90;;;;;;5132589;27;20031;-77
2023/12/03 08:30:17;;;;;;;51.05;23.27;;;1.60;99.90;;;;;;5132207;27;20388;-76
2023/12/03 08:32:43;;;;;;;54.78;22.58;;;1.70;99.90;;;;;;5113580;27;20027;-77
2023/12/03 08:35:09;;;;;;;50.95;22.73;;;1.70;99.90;;;;;;5132440;27;20023;-77
2023/12/03 08:37:35;;;;;;;53.85;25.20;;;1.70;99.90;;;;;;5131893;27;20023;-77
2023/12/03 08:40:00;;;;;;;47.30;21.95;;;1.70;99.90;;;;;;5131879;27;20062;-78
2023/12/03 08:42:26;;;;;;;50.85;22.52;;;1.80;99.90;;;;;;5113190;27;20034;-78
2023/12/03 08:44:52;;;;;;;52.30;23.02;;;1.80;99.90;;;;;;5132215;27;20429;-78
2023/12/03 08:47:17;;;;;;;55.03;24.15;;;1.80;99.90;;;;;;5132204;27;20030;-77
2023/12/03 08:49:43;;;;;;;60.72;25.83;;;1.90;99.90;;;;;;5132537;27;20027;-78
2023/12/03 08:52:09;;;;;;;57.72;26.90;;;1.90;99.90;;;;;;5132861;27;20027;-77
2023/12/03 08:54:35;;;;;;;52.10;24.05;;;2.00;99.90;;;;;;5134645;27;20074;-77
2023/12/03 08:57:00;;;;;;;50.30;22.88;;;1.90;99.90;;;;;;5134883;27;20435;-77
2023/12/03 08:59:26;;;;;;;52.25;24.13;;;2.00;99.90;;;;;;5113217;27;20027;-77
2023/12/03 09:01:52;;;;;;;56.13;24.35;;;2.10;99.90;;;;;;5139554;27;20038;-77
2023/12/03 09:04:18;;;;;;;48.30;22.48;;;2.10;99.90;;;;;;5136514;27;20464;-78
2023/12/03 09:06:46;;;;;;;47.70;23.30;;;2.10;99.90;;;;;;5131423;27;20609;-79
2023/12/03 09:09:12;;;;;;;57.88;25.58;;;2.20;99.90;;;;;;5132477;27;20038;-79
2023/12/03 09:11:41;;;;;;;64.68;26.63;;;2.20;99.90;;;;;;5132014;27;20050;-79
2023/12/03 09:14:07;;;;;;;54.83;25.27;;;2.10;99.90;;;;;;5113587;27;20551;-78
2023/12/03 09:16:33;;;;;;;52.03;24.55;;;2.20;99.90;;;;;;5112717;27;20134;-78
2023/12/03 09:18:59;;;;;;;52.85;25.02;;;2.20;99.90;;;;;;5132742;27;20083;-78
2023/12/03 09:21:24;;;;;;;47.30;22.60;;;2.10;99.90;;;;;;5113390;27;20325;-80
2023/12/03 09:23:50;;;;;;;59.95;25.52;;;2.10;99.90;;;;;;5132085;27;20038;-78
2023/12/03 09:26:16;;;;;;;53.92;25.33;;;2.30;99.90;;;;;;5132022;27;20020;-77
2023/12/03 09:28:42;;;;;;;53.83;24.48;;;2.20;99.90;;;;;;5112883;28;20393;-79
2023/12/03 09:31:07;;;;;;;50.10;22.73;;;2.20;99.90;;;;;;5131507;27;20113;-78
2023/12/03 09:33:33;;;;;;;50.45;22.67;;;2.20;99.90;;;;;;5130775;27;20019;-79
2023/12/03 09:35:59;;;;;;;67.40;28.35;;;2.20;99.90;;;;;;5096281;28;20122;-79
2023/12/03 09:38:24;;;;;;;52.53;25.83;;;2.20;99.90;;;;;;5131551;28;20027;-80
2023/12/03 09:40:55;;;;;;;51.90;25.33;;;2.20;99.90;;;;;;5130942;28;20035;-78
2023/12/03 09:43:21;;;;;;;55.50;25.05;;;2.10;99.90;;;;;;5131612;28;20022;-78
2023/12/03 09:45:47;;;;;;;50.45;24.17;;;2.10;99.90;;;;;;5112446;28;20820;-79
2023/12/03 09:48:14;;;;;;;48.85;23.33;;;2.10;99.90;;;;;;5132029;28;20049;-78
2023/12/03 09:50:44;;;;;;;52.20;25.25;;;2.20;99.90;;;;;;5130944;28;20030;-78
2023/12/03 09:53:11;;;;;;;55.97;25.10;;;2.20;99.90;;;;;;5130948;28;20024;-78
2023/12/03 09:55:41;;;;;;;55.63;24.60;;;2.30;99.90;;;;;;5130867;28;20040;-78
2023/12/03 09:58:10;;;;;;;56.10;24.23;;;2.20;99.90;;;;;;5131024;28;20019;-78
2023/12/03 10:00:39;;;;;;;54.95;24.10;;;2.30;99.90;;;;;;5130693;28;20156;-79
2023/12/03 10:03:05;;;;;;;42.90;21.67;;;2.30;99.90;;;;;;5112990;28;20027;-78
2023/12/03 10:05:32;;;;;;;41.88;21.48;;;2.40;99.90;;;;;;5112301;28;20023;-79
2023/12/03 10:07:58;;;;;;;42.22;20.00;;;2.40;99.90;;;;;;5112927;28;20030;-78
2023/12/03 10:10:30;;;;;;;48.75;24.08;;;2.40;99.90;;;;;;5112923;28;20079;-79
2023/12/03 10:12:58;;;;;;;49.05;23.60;;;2.40;99.90;;;;;;5131610;28;20411;-78
2023/12/03 10:15:25;;;;;;;49.30;22.98;;;2.40;99.90;;;;;;5131536;28;20410;-78
2023/12/03 10:17:51;;;;;;;47.35;22.25;;;2.40;99.90;;;;;;5130738;28;20031;-78
2023/12/03 10:20:21;;;;;;;44.72;22.08;;;2.40;99.90;;;;;;5112903;28;20083;-78
2023/12/03 10:22:52;;;;;;;47.33;22.67;;;2.50;99.90;;;;;;5130497;28;20035;-78
2023/12/03 10:25:35;;;;;;;49.85;24.27;;;2.60;99.90;;;;;;5130992;28;20034;-79
2023/12/03 10:28:03;;;;;;;54.83;25.75;;;2.40;99.90;;;;;;5116806;27;20325;-78
2023/12/03 10:30:29;;;;;;;53.35;25.17;;;2.60;99.90;;;;;;5134964;27;20390;-80
2023/12/03 10:32:55;;;;;;;51.38;24.02;;;2.60;99.90;;;;;;5134377;27;20030;-79
2023/12/03 10:35:22;;;;;;;47.35;23.25;;;2.60;99.90;;;;;;5116690;27;20394;-79
2023/12/03 10:37:48;;;;;;;53.63;24.23;;;2.60;99.90;;;;;;5134566;27;20050;-80
2023/12/03 10:40:15;;;;;;;52.53;25.35;;;2.70;99.90;;;;;;5134743;27;20031;-79
2023/12/03 10:42:41;;;;;;;44.33;23.30;;;2.70;99.90;;;;;;5134581;27;20389;-80
2023/12/03 10:45:10;;;;;;;50.83;24.13;;;2.70;99.90;;;;;;5134806;27;20058;-79
2023/12/03 10:47:37;;;;;;;50.47;24.88;;;2.80;99.90;;;;;;5133826;27;20068;-79
2023/12/03 10:50:05;;;;;;;49.78;25.08;;;2.60;99.90;;;;;;5134497;27;20126;-79
2023/12/03 10:52:35;;;;;;;48.83;24.75;;;2.60;99.90;;;;;;5133938;27;20156;-80
2023/12/03 10:55:02;;;;;;;48.70;24.20;;;2.80;99.90;;;;;;5116300;27;20051;-79
2023/12/03 10:57:30;;;;;;;49.72;24.27;;;2.70;99.90;;;;;;5134290;27;20027;-79
2023/12/03 11:00:09;;;;;;;47.17;24.58;;;2.70;99.90;;;;;;5134292;27;20023;-79
2023/12/03 11:03:20;;;;;;;45.03;22.80;;;2.60;99.90;;;;;;5133544;27;20096;-80
2023/12/03 11:05:52;;;;;;;44.67;22.23;;;2.60;99.90;;;;;;5129365;27;20035;-79
2023/12/03 11:08:21;;;;;;;42.58;21.25;;;2.70;99.90;;;;;;5134151;27;20059;-79
2023/12/03 11:10:48;;;;;;;50.65;25.13;;;2.60;99.90;;;;;;5133143;27;20122;-79
2023/12/03 11:13:16;;;;;;;50.20;25.80;;;2.60;99.90;;;;;;5116015;27;20023;-79
2023/12/03 11:15:44;;;;;;;51.72;25.63;;;2.60;99.90;;;;;;5115020;27;20035;-79
2023/12/03 11:18:12;;;;;;;44.90;23.52;;;2.50;99.90;;;;;;5133537;27;20540;-79
2023/12/03 11:20:39;;;;;;;48.72;24.40;;;2.50;99.90;;;;;;5133432;27;20027;-79
2023/12/03 11:23:32;;;;;;;43.50;21.15;;;2.50;99.90;;;;;;5133608;27;20134;-79
2023/12/03 11:26:06;;;;;;;40.97;21.48;;;2.60;99.90;;;;;;5133567;27;20019;-79
2023/12/03 11:28:32;;;;;;;44.88;23.58;;;2.60;99.90;;;;;;5133605;27;20076;-80
2023/12/03 11:30:57;;;;;;;44.97;23.45;;;2.50;99.90;;;;;;5114822;27;20027;-79
2023/12/03 11:33:27;;;;;;;43.13;22.75;;;2.50;99.90;;;;;;5115050;27;20466;-79
2023/12/03 11:35:53;;;;;;;43.47;22.20;;;2.50;99.90;;;;;;5133982;27;20609;-79
2023/12/03 11:38:22;;;;;;;40.30;20.77;;;2.50;99.90;;;;;;5132645;27;20024;-78
2023/12/03 11:40:49;;;;;;;41.50;20.48;;;2.50;99.90;;;;;;5133171;27;20031;-79
2023/12/03 11:43:25;;;;;;;37.92;21.70;;;2.50;99.90;;;;;;5134264;27;20019;-79
2023/12/03 11:45:53;;;;;;;40.95;20.88;;;2.60;99.90;;;;;;5134235;27;20475;-79
2023/12/03 11:48:19;;;;;;;49.80;31.05;;;2.60;99.90;;;;;;5133293;27;20031;-79
2023/12/03 11:50:47;;;;;;;73.20;46.15;;;2.60;99.90;;;;;;5114714;27;20031;-79
2023/12/03 11:53:15;;;;;;;41.15;23.90;;;2.70;99.90;;;;;;5133683;27;20031;-79
2023/12/03 11:55:45;;;;;;;40.42;21.73;;;2.70;99.90;;;;;;5133608;27;20035;-79
2023/12/03 11:58:11;;;;;;;50.88;27.60;;;2.70;99.90;;;;;;5114886;27;20302;-79
2023/12/03 12:00:38;;;;;;;41.20;23.20;;;2.70;99.90;;;;;;5134523;27;20049;-80
2023/12/03 12:03:05;;;;;;;36.97;20.70;;;2.70;99.90;;;;;;5115168;27;20186;-79
2023/12/03 12:05:31;;;;;;;38.30;20.20;;;2.70;99.90;;;;;;5116158;27;20023;-79
2023/12/03 12:08:01;;;;;;;35.22;20.70;;;2.80;99.90;;;;;;5134775;27;20043;-79
2023/12/03 12:10:27;;;;;;;36.55;20.63;;;2.70;99.90;;;;;;5137545;27;20115;-79
2023/12/03 12:12:53;;;;;;;38.40;21.65;;;2.90;99.90;;;;;;5133414;27;20025;-78
2023/12/03 12:15:20;;;;;;;37.65;19.80;;;3.00;99.90;;;;;;5099824;27;20031;-78
2023/12/03 12:17:45;;;;;;;30.77;18.90;;;2.90;99.90;;;;;;5135230;27;20474;-80
2023/12/03 12:20:12;;;;;;;34.35;20.30;;;3.10;99.90;;;;;;5134102;27;20031;-78
2023/12/03 12:22:38;;;;;;;29.38;17.60;;;3.20;99.90;;;;;;5115240;27;20027;-79
2023/12/03 12:25:07;;;;;;;31.25;18.02;;;3.30;99.90;;;;;;5133287;27;20090;-78
2023/12/03 12:27:32;;;;;;;32.92;18.95;;;3.40;99.90;;;;;;5134152;27;20035;-78
2023/12/03 12:29:58;;;;;;;25.33;16.85;;;3.50;99.90;;;;;;5133598;27;20031;-79
2023/12/03 12:32:24;;;;;;;27.27;17.30;;;3.60;99.90;;;;;;5114267;27;20023;-79